This is the latest recevied weather packets stored in our database for station/object NY5V. If no packets are shown the sender has not sent any weather packets the latest 10 day(s).
| Time | Temp. | Humidity | Pressure | Rain* | Wind** | Luminosity | Snow |
|---|---|---|---|---|---|---|---|
| 1788139384 | 88° F | 55% | 760.3 mmHg | 0 in | - | 0 W/m² | - |
| 1788138785 | 89° F | 53% | 760.1 mmHg | 0 in | - | 0 W/m² | - |
| 1788138180 | 90° F | 52% | 760.1 mmHg | 0 in | - | 0 W/m² | - |
| 1788137578 | 91° F | 48% | 760 mmHg | 0 in | - | 1 W/m² | - |
| 1788136974 | 93° F | 48% | 760.1 mmHg | 0 in | - | 3 W/m² | - |
| 1788136371 | 94° F | 44% | 760 mmHg | 0 in | - | 6 W/m² | - |
| 1788135770 | 95° F | 42% | 760.1 mmHg | 0 in | - | 9 W/m² | - |
| 1788135167 | 96° F | 42% | 760.1 mmHg | 0 in | - | 11 W/m² | - |
| 1788134564 | 97° F | 41% | 760.1 mmHg | 0 in | - | 14 W/m² | - |
| 1788133964 | 97° F | 39% | 760 mmHg | 0 in | - | 18 W/m² | - |
| 1788133361 | 98° F | 40% | 760 mmHg | 0 in | - | 19 W/m² | - |
| 1788132757 | 98° F | 39% | 760.2 mmHg | 0 in | - | 21 W/m² | - |
| 1788132155 | 98° F | 39% | 760.3 mmHg | 0 in | - | 21 W/m² | - |
| 1788131550 | 99° F | 38% | 760.2 mmHg | 0 in | - | 22 W/m² | - |
| 1788130946 | 99° F | 39% | 760.2 mmHg | 0 in | - | 23 W/m² | - |
| 1788130347 | 99° F | 38% | 760.1 mmHg | 0 in | - | 23 W/m² | - |
| 1788129741 | 99° F | 39% | 760.2 mmHg | 0 in | - | 25 W/m² | - |
| 1788129139 | 99° F | 38% | 760.3 mmHg | 0 in | - | 29 W/m² | - |
| 1788128535 | 99° F | 39% | 760.3 mmHg | 0 in | - | 28 W/m² | - |
| 1788127934 | 100° F | 38% | 760.3 mmHg | 0 in | - | 41 W/m² | - |
| 1788127333 | 98° F | 40% | 760.4 mmHg | 0 in | - | 53 W/m² | - |
| 1788126733 | 99° F | 38% | 760.4 mmHg | 0 in | - | 35 W/m² | - |
| 1788126128 | 99° F | 39% | 760.5 mmHg | 0 in | - | 39 W/m² | - |
| 1788125523 | 99° F | 39% | 760.6 mmHg | 0 in | - | 58 W/m² | - |
| 1788124920 | 98° F | 40% | 760.7 mmHg | 0 in | - | 41 W/m² | - |
* Rain latest hour (hover to see other rain measurements)
** Current wind speed in m/s (hover to see current wind gust speed)